createdAt,value
2023-04-04T00:00:41.632Z,5.57
2023-04-04T00:03:10.270Z,5.05
2023-04-04T00:05:38.550Z,5.78
2023-04-04T00:08:07.305Z,3.72
2023-04-04T00:10:35.632Z,5.97
2023-04-04T00:13:05.706Z,6.55
2023-04-04T00:15:34.662Z,5.70
2023-04-04T00:18:04.948Z,3.83
2023-04-04T00:20:33.130Z,6.15
2023-04-04T00:23:01.254Z,5.80
2023-04-04T00:25:29.446Z,4.80
2023-04-04T00:28:00.706Z,6.40
2023-04-04T00:30:29.596Z,7.57
2023-04-04T00:32:58.207Z,7.13
2023-04-04T00:35:28.063Z,9.35
2023-04-04T00:37:56.363Z,6.32
2023-04-04T00:40:24.616Z,3.85
2023-04-04T00:42:53.100Z,6.47
2023-04-04T00:45:21.595Z,3.95
2023-04-04T00:47:51.160Z,4.95
2023-04-04T00:50:19.420Z,5.78
2023-04-04T00:52:48.929Z,4.38
2023-04-04T00:55:17.566Z,6.25
2023-04-04T00:57:45.703Z,5.40
2023-04-04T01:00:16.510Z,4.00
2023-04-04T01:02:44.829Z,6.53
2023-04-04T01:05:13.560Z,4.38
2023-04-04T01:07:42.976Z,8.02
2023-04-04T01:10:13.409Z,4.75
2023-04-04T01:12:43.358Z,5.18
2023-04-04T01:15:12.459Z,6.15
2023-04-04T01:17:41.996Z,7.13
2023-04-04T01:20:14.491Z,7.45
2023-04-04T01:22:44.563Z,6.60
2023-04-04T01:25:15.629Z,5.68
2023-04-04T01:27:45.619Z,5.13
2023-04-04T01:30:16.123Z,4.93
2023-04-04T01:32:46.999Z,5.82
2023-04-04T01:35:25.766Z,4.72
2023-04-04T01:38:09.477Z,4.53
2023-04-04T01:40:39.557Z,2.90
2023-04-04T01:43:10.009Z,4.53
2023-04-04T01:45:38.352Z,4.05
2023-04-04T01:48:06.790Z,4.97
2023-04-04T01:50:35.016Z,2.83
2023-04-04T01:53:03.174Z,5.55
2023-04-04T01:55:31.286Z,4.22
2023-04-04T01:57:59.430Z,5.07
2023-04-04T02:00:28.901Z,7.03
2023-04-04T02:02:57.313Z,4.80
2023-04-04T02:05:25.782Z,4.57
2023-04-04T02:07:53.941Z,5.38
2023-04-04T02:10:22.098Z,4.20
2023-04-04T02:12:50.217Z,4.60
2023-04-04T02:15:19.427Z,4.35
2023-04-04T02:17:50.613Z,5.10
2023-04-04T02:20:19.552Z,4.03
2023-04-04T02:22:57.675Z,6.47
2023-04-04T02:25:26.491Z,4.45
2023-04-04T02:27:54.666Z,5.30
2023-04-04T02:30:22.814Z,5.78
2023-04-04T02:32:52.410Z,6.05
2023-04-04T02:35:20.717Z,6.30
2023-04-04T02:37:49.021Z,5.18
2023-04-04T02:40:17.196Z,4.38
2023-04-04T02:42:45.602Z,3.85
2023-04-04T02:45:14.883Z,2.97
2023-04-04T02:47:43.605Z,4.47
2023-04-04T02:50:13.349Z,3.45
2023-04-04T02:52:41.486Z,5.50
2023-04-04T02:55:10.597Z,3.42
2023-04-04T02:57:38.955Z,2.85
2023-04-04T03:00:08.504Z,3.72
2023-04-04T03:02:36.870Z,4.72
2023-04-04T03:05:05.365Z,4.95
2023-04-04T03:07:34.916Z,3.30
2023-04-04T03:10:03.076Z,4.43
2023-04-04T03:12:31.377Z,5.57
2023-04-04T03:14:59.511Z,3.67
2023-04-04T03:17:27.690Z,5.28
2023-04-04T03:19:55.842Z,4.43
2023-04-04T03:22:23.998Z,3.38
2023-04-04T03:24:53.504Z,4.15
2023-04-04T03:27:22.188Z,4.30
2023-04-04T03:29:50.317Z,4.60
2023-04-04T03:32:19.283Z,5.40
2023-04-04T03:34:47.463Z,4.25
2023-04-04T03:37:15.605Z,4.32
2023-04-04T03:39:43.710Z,6.45
2023-04-04T03:42:13.577Z,4.18
2023-04-04T03:44:41.944Z,4.10
2023-04-04T03:47:10.078Z,6.95
2023-04-04T03:49:38.241Z,5.57
2023-04-04T03:52:06.790Z,3.95
2023-04-04T03:54:35.120Z,3.85
2023-04-04T03:57:03.798Z,3.83
2023-04-04T03:59:33.330Z,3.83
2023-04-04T04:02:01.460Z,3.45
2023-04-04T04:04:29.659Z,4.13
2023-04-04T04:06:58.561Z,3.53
2023-04-04T04:09:27.092Z,4.68
2023-04-04T04:11:55.268Z,6.05
2023-04-04T04:14:23.509Z,5.10
2023-04-04T04:16:53.038Z,5.80
2023-04-04T04:19:21.610Z,4.60
2023-04-04T04:21:49.762Z,5.15
2023-04-04T04:24:17.996Z,3.58
2023-04-04T04:26:46.117Z,8.35
2023-04-04T04:29:14.224Z,3.30
2023-04-04T04:31:42.323Z,5.32
2023-04-04T04:34:11.898Z,4.07
2023-04-04T04:36:40.063Z,6.93
2023-04-04T04:39:08.253Z,3.97
2023-04-04T04:41:36.791Z,2.92
2023-04-04T04:44:04.926Z,6.50
2023-04-04T04:46:33.223Z,2.95
2023-04-04T04:49:01.428Z,7.93
2023-04-04T04:51:31.015Z,4.65
2023-04-04T04:53:59.298Z,7.05
2023-04-04T04:56:27.502Z,4.80
2023-04-04T04:58:55.667Z,5.18
2023-04-04T05:01:23.979Z,9.88
2023-04-04T05:03:53.372Z,2.70
2023-04-04T05:06:22.078Z,3.40
2023-04-04T05:08:51.838Z,5.53
2023-04-04T05:11:20.005Z,7.45
2023-04-04T05:13:48.521Z,8.50
2023-04-04T05:16:16.686Z,5.75
2023-04-04T05:18:44.836Z,4.32
2023-04-04T05:21:13.370Z,4.20
2023-04-04T05:23:41.883Z,5.30
2023-04-04T05:26:11.364Z,7.35
2023-04-04T05:28:40.646Z,4.95
2023-04-04T05:31:08.841Z,4.95
2023-04-04T05:33:36.977Z,6.53
2023-04-04T05:36:05.475Z,5.88
2023-04-04T05:38:33.635Z,7.07
2023-04-04T05:41:01.737Z,7.18
2023-04-04T05:43:31.267Z,6.45
2023-04-04T05:45:59.446Z,6.97
2023-04-04T05:48:27.593Z,7.93
2023-04-04T05:50:55.719Z,7.88
2023-04-04T05:53:23.947Z,5.80
2023-04-04T05:55:53.682Z,5.93
2023-04-04T05:58:22.353Z,7.63
2023-04-04T06:00:51.752Z,4.18
2023-04-04T06:03:21.991Z,5.70
2023-04-04T06:05:53.495Z,3.95
2023-04-04T06:08:21.836Z,6.38
2023-04-04T06:10:50.001Z,8.02
2023-04-04T06:13:18.147Z,7.90
2023-04-04T06:15:46.389Z,12.77
2023-04-04T06:18:17.441Z,7.32
2023-04-04T06:20:45.718Z,9.38
2023-04-04T06:23:13.916Z,7.13
2023-04-04T06:25:42.047Z,6.05
2023-04-04T06:28:11.138Z,10.68
2023-04-04T06:30:39.706Z,7.90
2023-04-04T06:33:08.132Z,9.90
2023-04-04T06:35:37.662Z,7.65
2023-04-04T06:38:05.983Z,12.48
2023-04-04T06:40:34.108Z,7.13
2023-04-04T06:43:02.250Z,7.22
2023-04-04T06:45:33.447Z,8.88
2023-04-04T06:48:01.734Z,9.25
2023-04-04T06:50:32.364Z,15.45
2023-04-04T06:53:02.150Z,14.18
2023-04-04T06:55:30.344Z,9.27
2023-04-04T06:57:58.480Z,8.10
2023-04-04T07:00:26.711Z,12.02
2023-04-04T07:03:00.011Z,12.77
2023-04-04T07:05:28.533Z,13.18
2023-04-04T07:07:57.207Z,7.50
2023-04-04T07:10:27.420Z,10.10
2023-04-04T07:12:55.582Z,10.40
2023-04-04T07:15:23.607Z,7.03
2023-04-04T07:17:51.875Z,9.30
2023-04-04T07:20:20.129Z,9.85
2023-04-04T07:22:49.577Z,9.27
2023-04-04T07:25:17.815Z,10.13
2023-04-04T07:27:47.688Z,9.20
2023-04-04T07:30:16.715Z,10.10
2023-04-04T07:32:45.231Z,12.75
2023-04-04T07:35:13.863Z,7.55
2023-04-04T07:37:41.959Z,11.57
2023-04-04T07:40:12.148Z,11.10
2023-04-04T07:42:46.776Z,9.45
2023-04-04T07:45:15.342Z,8.03
2023-04-04T07:47:44.907Z,8.48
2023-04-04T07:50:13.234Z,9.48
2023-04-04T07:52:41.812Z,9.80
2023-04-04T07:55:11.479Z,11.20
2023-04-04T07:57:40.112Z,7.15
2023-04-04T08:00:11.011Z,7.68
2023-04-04T08:02:39.472Z,9.35
2023-04-04T08:05:09.108Z,9.60
2023-04-04T08:07:37.473Z,9.60
2023-04-04T08:10:06.302Z,7.65
2023-04-04T08:12:34.474Z,7.07
2023-04-04T08:15:03.122Z,8.32
2023-04-04T08:17:32.613Z,6.65
2023-04-04T08:20:00.736Z,5.85
2023-04-04T08:22:28.886Z,7.20
2023-04-04T08:24:56.990Z,8.13
2023-04-04T08:27:25.170Z,6.32
2023-04-04T08:29:53.320Z,9.75
2023-04-04T08:32:22.344Z,6.28
2023-04-04T08:34:52.246Z,6.43
2023-04-04T08:37:20.435Z,4.53
2023-04-04T08:39:48.544Z,7.15
2023-04-04T08:42:20.650Z,8.50
2023-04-04T08:44:52.165Z,4.88
2023-04-04T08:47:22.782Z,4.93
2023-04-04T08:49:54.243Z,7.82
2023-04-04T08:52:25.094Z,7.40
2023-04-04T08:54:53.696Z,5.97
2023-04-04T08:57:21.937Z,4.65
2023-04-04T08:59:50.211Z,4.53
2023-04-04T09:02:25.336Z,7.20
2023-04-04T09:05:05.519Z,5.10
2023-04-04T09:07:38.623Z,5.57
2023-04-04T09:10:10.690Z,7.13
2023-04-04T09:12:41.149Z,7.72
2023-04-04T09:15:10.805Z,7.63
2023-04-04T09:17:39.010Z,4.90
2023-04-04T09:20:42.292Z,3.50
2023-04-04T09:23:12.083Z,5.13
2023-04-04T09:25:56.233Z,6.22
2023-04-04T09:28:31.315Z,7.38
2023-04-04T09:31:01.961Z,4.18
2023-04-04T09:33:30.149Z,5.13
2023-04-04T09:36:02.950Z,3.47
2023-04-04T09:38:32.384Z,4.88
2023-04-04T09:41:00.857Z,7.82
2023-04-04T09:43:32.326Z,6.90
2023-04-04T09:46:02.356Z,6.93
2023-04-04T09:48:33.426Z,3.92
2023-04-04T09:51:06.775Z,7.10
2023-04-04T09:53:37.356Z,4.32
2023-04-04T09:56:07.050Z,7.07
2023-04-04T09:58:36.651Z,6.95
2023-04-04T10:01:09.683Z,5.53
2023-04-04T10:03:39.060Z,7.25
2023-04-04T10:06:10.545Z,2.70
2023-04-04T10:08:41.401Z,6.70
2023-04-04T10:11:12.256Z,4.75
2023-04-04T10:13:44.290Z,6.63
2023-04-04T10:16:12.672Z,7.05
2023-04-04T10:18:41.570Z,6.13
2023-04-04T10:21:15.653Z,4.97
2023-04-04T10:23:47.919Z,7.03
2023-04-04T10:26:16.361Z,8.45
2023-04-04T10:28:45.573Z,5.22
2023-04-04T10:31:21.704Z,5.32
2023-04-04T10:34:01.872Z,4.65
2023-04-04T10:36:37.623Z,5.03
2023-04-04T10:39:13.797Z,7.18
2023-04-04T10:41:42.531Z,5.20
2023-04-04T10:44:19.922Z,7.35
2023-04-04T10:46:51.301Z,5.55
2023-04-04T10:49:21.462Z,3.47
2023-04-04T10:51:56.442Z,8.07
2023-04-04T10:54:27.659Z,7.68
2023-04-04T10:57:00.806Z,8.15
2023-04-04T10:59:29.412Z,10.20
2023-04-04T11:01:58.855Z,8.65
2023-04-04T11:04:35.098Z,5.93
2023-04-04T11:07:13.377Z,5.53
2023-04-04T11:09:51.884Z,4.53
2023-04-04T11:12:24.141Z,6.35
2023-04-04T11:15:12.701Z,4.53
2023-04-04T11:17:57.412Z,5.63
2023-04-04T11:20:34.610Z,7.55
2023-04-04T11:23:09.981Z,5.82
2023-04-04T11:28:08.980Z,4.65
2023-04-04T11:30:44.813Z,6.03
2023-04-04T11:33:15.350Z,3.95
2023-04-04T11:35:51.151Z,7.15
2023-04-04T11:38:21.945Z,5.97
2023-04-04T11:40:57.053Z,5.18
2023-04-04T11:43:26.945Z,6.65
2023-04-04T11:45:56.590Z,4.90
2023-04-04T11:48:25.376Z,4.30
2023-04-04T11:50:54.748Z,5.60
2023-04-04T11:53:24.163Z,7.60
2023-04-04T11:55:53.077Z,6.93
2023-04-04T11:58:21.225Z,4.70
2023-04-04T12:00:50.650Z,4.68
2023-04-04T12:03:19.102Z,6.30
2023-04-04T12:05:48.643Z,5.43
2023-04-04T12:08:18.088Z,5.88
2023-04-04T12:10:47.634Z,5.90
2023-04-04T12:13:16.395Z,7.70
2023-04-04T12:15:45.172Z,5.28
2023-04-04T12:18:22.724Z,6.47
2023-04-04T12:20:52.898Z,5.13
2023-04-04T12:23:21.771Z,5.55
2023-04-04T12:25:54.922Z,4.85
2023-04-04T12:28:24.034Z,6.97
2023-04-04T12:30:53.222Z,7.82
2023-04-04T12:33:22.245Z,7.47
2023-04-04T12:35:54.860Z,6.38
2023-04-04T12:38:23.540Z,4.72
2023-04-04T12:40:53.740Z,9.18
2023-04-04T12:43:22.059Z,5.53
2023-04-04T12:45:52.678Z,6.78
2023-04-04T12:48:23.084Z,7.82
2023-04-04T12:50:53.205Z,5.53
2023-04-04T12:53:28.558Z,7.05
2023-04-04T12:56:03.671Z,4.35
2023-04-04T12:58:34.264Z,6.07
2023-04-04T13:01:04.898Z,8.05
2023-04-04T13:03:35.205Z,4.78
2023-04-04T13:06:03.855Z,7.55
2023-04-04T13:08:32.526Z,6.97
2023-04-04T13:11:04.779Z,7.03
2023-04-04T13:13:35.345Z,5.57
2023-04-04T13:16:04.507Z,4.32
2023-04-04T13:18:38.372Z,7.30
2023-04-04T13:21:08.553Z,4.45
2023-04-04T13:23:39.540Z,5.53
2023-04-04T13:26:10.846Z,4.63
2023-04-04T13:28:39.133Z,5.80
2023-04-04T13:31:08.949Z,6.45
2023-04-04T13:33:38.961Z,5.82
2023-04-04T13:36:07.727Z,6.10
2023-04-04T13:38:35.845Z,4.65
2023-04-04T13:41:04.010Z,3.58
2023-04-04T13:43:33.553Z,6.38
2023-04-04T13:46:01.809Z,9.98
2023-04-04T13:48:29.964Z,5.43
2023-04-04T13:50:58.187Z,5.72
2023-04-04T13:53:26.346Z,5.68
2023-04-04T13:56:13.859Z,4.53
2023-04-04T13:58:44.233Z,7.15
2023-04-04T14:01:12.559Z,8.18
2023-04-04T14:03:41.020Z,8.38
2023-04-04T14:06:11.119Z,11.93
2023-04-04T14:08:40.108Z,6.88
2023-04-04T14:11:08.518Z,4.93
2023-04-04T14:13:37.342Z,4.82
2023-04-04T14:16:09.268Z,6.05
2023-04-04T14:18:37.547Z,6.35
2023-04-04T14:21:07.246Z,4.00
2023-04-04T14:23:35.416Z,6.72
2023-04-04T14:26:04.456Z,4.57
2023-04-04T14:28:32.792Z,5.57
2023-04-04T14:31:01.612Z,7.07
2023-04-04T14:33:31.341Z,4.28
2023-04-04T14:35:59.441Z,9.15
2023-04-04T14:38:27.567Z,5.35
2023-04-04T14:40:55.709Z,5.95
2023-04-04T14:43:23.897Z,4.65
2023-04-04T14:45:52.442Z,3.65
2023-04-04T14:48:20.561Z,8.68
2023-04-04T14:50:50.125Z,4.28
2023-04-04T14:53:18.807Z,9.52
2023-04-04T14:55:46.916Z,7.75
2023-04-04T14:58:15.072Z,6.85
2023-04-04T15:00:43.277Z,3.85
2023-04-04T15:03:11.594Z,8.05
2023-04-04T15:05:40.073Z,6.57
2023-04-04T15:08:09.832Z,4.80
2023-04-04T15:10:38.007Z,7.45
2023-04-04T15:13:06.166Z,4.63
2023-04-04T15:15:34.268Z,4.72
2023-04-04T15:18:03.465Z,7.22
2023-04-04T15:20:31.654Z,6.63
2023-04-04T15:22:59.769Z,4.90
2023-04-04T15:25:29.860Z,5.93
2023-04-04T15:27:57.974Z,4.35
2023-04-04T15:30:27.099Z,5.85
2023-04-04T15:32:56.260Z,5.07
2023-04-04T15:35:25.069Z,7.70
2023-04-04T15:37:53.203Z,6.20
2023-04-04T15:40:22.690Z,7.53
2023-04-04T15:42:52.491Z,7.57
2023-04-04T15:45:20.696Z,7.07
2023-04-04T15:47:48.971Z,6.93
2023-04-04T15:50:17.146Z,7.00
2023-04-04T15:52:45.522Z,4.38
2023-04-04T15:55:17.086Z,4.80
2023-04-04T15:57:45.546Z,3.85
2023-04-04T16:00:17.018Z,5.60
2023-04-04T16:02:45.387Z,5.45
2023-04-04T16:05:13.673Z,7.43
2023-04-04T16:07:41.777Z,6.30
2023-04-04T16:10:11.296Z,5.95
2023-04-04T16:12:39.478Z,7.22
2023-04-04T16:15:09.468Z,6.93
2023-04-04T16:17:38.999Z,4.07
2023-04-04T16:20:08.210Z,4.68
2023-04-04T16:22:36.362Z,4.43
2023-04-04T16:25:04.764Z,7.13
2023-04-04T16:27:34.130Z,8.90
2023-04-04T16:30:02.524Z,4.85
2023-04-04T16:32:31.753Z,5.22
2023-04-04T16:35:01.396Z,5.97
2023-04-04T16:37:29.523Z,7.57
2023-04-04T16:40:00.272Z,8.25
2023-04-04T16:42:28.374Z,4.25
2023-04-04T16:44:56.597Z,6.97
2023-04-04T16:47:26.123Z,6.85
2023-04-04T16:49:55.091Z,6.03
2023-04-04T16:52:24.558Z,8.63
2023-04-04T16:54:54.404Z,5.43
2023-04-04T16:57:22.564Z,5.95
2023-04-04T16:59:50.698Z,8.02
2023-04-04T17:02:18.933Z,8.90
2023-04-04T17:04:47.103Z,7.05
2023-04-04T17:07:15.338Z,7.25
2023-04-04T17:09:47.099Z,5.32
2023-04-04T17:12:16.410Z,5.20
2023-04-04T17:14:45.259Z,8.23
2023-04-04T17:17:13.403Z,5.28
2023-04-04T17:19:41.473Z,5.70
2023-04-04T17:22:09.588Z,5.70
2023-04-04T17:24:37.680Z,4.95
2023-04-04T17:27:07.722Z,6.88
2023-04-04T17:29:36.150Z,4.43
2023-04-04T17:32:05.318Z,6.07
2023-04-04T17:34:33.473Z,6.70
2023-04-04T17:37:03.358Z,6.13
2023-04-04T17:39:31.500Z,5.97
2023-04-04T17:41:59.586Z,8.45
2023-04-04T17:44:29.135Z,7.53
2023-04-04T17:46:57.272Z,5.50
2023-04-04T17:49:27.179Z,5.95
2023-04-04T17:51:55.326Z,7.15
2023-04-04T17:54:25.925Z,7.18
2023-04-04T17:56:54.229Z,7.13
2023-04-04T17:59:22.379Z,6.95
2023-04-04T18:01:52.129Z,4.32
2023-04-04T18:04:22.230Z,6.78
2023-04-04T18:06:50.418Z,8.50
2023-04-04T18:09:18.666Z,7.55
2023-04-04T18:11:46.913Z,6.05
2023-04-04T18:14:15.465Z,9.05
2023-04-04T18:16:43.744Z,5.88
2023-04-04T18:19:13.339Z,9.10
2023-04-04T18:21:41.626Z,8.60
2023-04-04T18:24:11.801Z,11.30
2023-04-04T18:26:40.075Z,5.82
2023-04-04T18:29:08.353Z,5.88
2023-04-04T18:31:36.572Z,8.02
2023-04-04T18:34:04.714Z,11.05
2023-04-04T18:36:36.353Z,7.50
2023-04-04T18:39:04.772Z,9.05
2023-04-04T18:41:33.737Z,6.82
2023-04-04T18:44:02.027Z,7.43
2023-04-04T18:46:30.278Z,8.02
2023-04-04T18:48:58.441Z,8.88
2023-04-04T18:51:26.722Z,9.48
2023-04-04T18:53:56.317Z,7.03
2023-04-04T18:56:24.493Z,7.55
2023-04-04T18:58:52.789Z,7.35
2023-04-04T19:01:20.979Z,6.05
2023-04-04T19:03:51.496Z,21.70
2023-04-04T19:06:19.710Z,21.85
2023-04-04T19:08:48.739Z,11.88
2023-04-04T19:11:18.222Z,9.40
2023-04-04T19:13:46.306Z,7.18
2023-04-04T19:16:14.528Z,10.73
2023-04-04T19:18:43.741Z,12.50
2023-04-04T19:21:11.872Z,9.63
2023-04-04T19:23:40.091Z,11.55
2023-04-04T19:26:08.219Z,9.55
2023-04-04T19:28:37.652Z,6.47
2023-04-04T19:31:10.784Z,9.88
2023-04-04T19:33:39.679Z,8.57
2023-04-04T19:36:11.090Z,5.78
2023-04-04T19:38:42.512Z,7.13
2023-04-04T19:41:14.203Z,9.65
2023-04-04T19:43:45.626Z,5.78
2023-04-04T19:46:15.341Z,8.52
2023-04-04T19:48:46.123Z,9.05
2023-04-04T19:51:38.111Z,9.52
2023-04-04T19:54:09.241Z,11.43
2023-04-04T19:56:37.408Z,9.57
2023-04-04T19:59:10.417Z,8.40
2023-04-04T20:01:44.760Z,7.32
2023-04-04T20:04:19.004Z,10.88
2023-04-04T20:06:49.155Z,7.70
2023-04-04T20:09:34.631Z,11.18
2023-04-04T20:12:02.894Z,8.63
2023-04-04T20:14:32.417Z,10.90
2023-04-04T20:17:00.537Z,8.57
2023-04-04T20:19:30.840Z,9.10
2023-04-04T20:21:59.114Z,7.28
2023-04-04T20:24:28.484Z,10.15
2023-04-04T20:26:59.210Z,10.35
2023-04-04T20:29:28.859Z,7.93
2023-04-04T20:32:00.218Z,31.10
2023-04-04T20:34:45.786Z,13.77
2023-04-04T20:37:16.195Z,11.25
2023-04-04T20:39:48.971Z,13.45
2023-04-04T20:42:32.415Z,8.30
2023-04-04T20:45:07.527Z,7.43
2023-04-04T20:47:43.457Z,10.88
2023-04-04T20:50:53.020Z,10.52
2023-04-04T20:53:21.221Z,7.63
2023-04-04T20:55:50.645Z,7.47
2023-04-04T20:58:29.384Z,8.65
2023-04-04T21:00:58.366Z,9.63
2023-04-04T21:03:32.760Z,9.98
2023-04-04T21:06:12.926Z,9.75
2023-04-04T21:08:45.514Z,10.98
2023-04-04T21:11:14.435Z,10.68
2023-04-04T21:13:43.622Z,12.32
2023-04-04T21:16:13.267Z,10.15
2023-04-04T21:18:43.276Z,7.63
2023-04-04T21:21:18.614Z,10.10
2023-04-04T21:26:29.838Z,11.55
2023-04-04T21:28:59.261Z,10.40
2023-04-04T21:31:30.854Z,9.93
2023-04-04T21:34:08.007Z,18.30
2023-04-04T21:36:36.228Z,9.35
2023-04-04T21:39:07.922Z,10.82
2023-04-04T21:41:36.592Z,15.75
2023-04-04T21:44:06.663Z,8.82
2023-04-04T21:46:36.994Z,10.60
2023-04-04T21:49:08.011Z,10.45
2023-04-04T21:51:36.711Z,10.98
2023-04-04T21:54:05.436Z,10.93
2023-04-04T21:56:33.565Z,9.93
2023-04-04T21:59:03.071Z,10.50
2023-04-04T22:01:31.560Z,9.93
2023-04-04T22:04:00.210Z,11.35
2023-04-04T22:06:31.153Z,10.50
2023-04-04T22:09:01.819Z,15.20
2023-04-04T22:11:30.271Z,10.38
2023-04-04T22:14:04.848Z,12.07
2023-04-04T22:16:37.028Z,12.43
2023-04-04T22:19:05.454Z,10.73
2023-04-04T22:21:36.616Z,16.15
2023-04-04T22:24:06.220Z,10.57
2023-04-04T22:26:34.711Z,12.02
2023-04-04T22:29:05.495Z,10.70
2023-04-04T22:31:35.195Z,11.85
2023-04-04T22:34:04.043Z,11.20
2023-04-04T22:36:34.394Z,11.35
2023-04-04T22:39:03.921Z,9.10
2023-04-04T22:41:32.039Z,9.10
2023-04-04T22:44:00.148Z,12.70
2023-04-04T22:46:29.380Z,9.63
2023-04-04T22:49:05.241Z,11.82
2023-04-04T22:51:45.769Z,11.43
2023-04-04T22:54:16.894Z,9.93
2023-04-04T22:56:45.508Z,10.40
2023-04-04T22:59:16.654Z,9.10
2023-04-04T23:01:44.874Z,8.48
2023-04-04T23:04:13.057Z,12.13
2023-04-04T23:06:41.262Z,9.27
2023-04-04T23:09:09.499Z,10.13
2023-04-04T23:11:39.979Z,8.55
2023-04-04T23:14:09.820Z,10.45
2023-04-04T23:16:38.400Z,13.18
2023-04-04T23:19:06.681Z,11.00
2023-04-04T23:21:34.859Z,9.85
2023-04-04T23:24:03.206Z,12.70
2023-04-04T23:26:32.506Z,9.07
2023-04-04T23:29:03.097Z,12.52
2023-04-04T23:31:31.696Z,12.38
2023-04-04T23:34:00.033Z,14.50
2023-04-04T23:36:28.330Z,17.13
2023-04-04T23:38:57.899Z,12.25
2023-04-04T23:41:26.366Z,10.88
2023-04-04T23:43:54.603Z,9.95
2023-04-04T23:46:24.191Z,12.57
2023-04-04T23:48:52.436Z,10.98
2023-04-04T23:51:21.445Z,12.57
2023-04-04T23:53:49.592Z,12.85
2023-04-04T23:56:17.822Z,12.02
2023-04-04T23:58:46.176Z,13.80
